sensor_id;sensor_type;location;lat;lon;timestamp;pressure;altitude;pressure_sealevel;temperature;humidity
24302;BME280;12421;49.732;20.078;2023-05-24T00:04:15;96502.14;;;15.53;79.65
24302;BME280;12421;49.732;20.078;2023-05-24T00:14:18;96506.97;;;15.47;80.36
24302;BME280;12421;49.732;20.078;2023-05-24T00:24:21;96502.99;;;15.49;80.48
24302;BME280;12421;49.732;20.078;2023-05-24T00:34:25;96502.28;;;15.63;80.67
24302;BME280;12421;49.732;20.078;2023-05-24T00:44:28;96496.21;;;15.74;80.42
24302;BME280;12421;49.732;20.078;2023-05-24T00:54:32;96500.36;;;15.81;80.18
24302;BME280;12421;49.732;20.078;2023-05-24T01:04:35;96503.70;;;15.77;80.17
24302;BME280;12421;49.732;20.078;2023-05-24T01:15:05;96503.96;;;15.80;80.51
24302;BME280;12421;49.732;20.078;2023-05-24T01:25:26;96504.17;;;15.88;81.19
24302;BME280;12421;49.732;20.078;2023-05-24T01:35:36;96504.92;;;16.04;81.21
24302;BME280;12421;49.732;20.078;2023-05-24T01:46:05;96505.10;;;16.13;81.15
24302;BME280;12421;49.732;20.078;2023-05-24T01:56:10;96511.06;;;16.15;81.55
24302;BME280;12421;49.732;20.078;2023-05-24T02:06:14;96513.77;;;16.23;81.63
24302;BME280;12421;49.732;20.078;2023-05-24T02:16:17;96515.71;;;16.31;81.41
24302;BME280;12421;49.732;20.078;2023-05-24T02:26:21;96509.58;;;16.34;81.41
24302;BME280;12421;49.732;20.078;2023-05-24T02:36:27;96507.02;;;16.32;81.25
24302;BME280;12421;49.732;20.078;2023-05-24T02:46:30;96503.55;;;16.21;81.75
24302;BME280;12421;49.732;20.078;2023-05-24T02:57:01;96511.36;;;16.25;82.13
24302;BME280;12421;49.732;20.078;2023-05-24T03:07:05;96511.23;;;16.33;82.10
24302;BME280;12421;49.732;20.078;2023-05-24T03:17:08;96512.42;;;16.38;82.11
24302;BME280;12421;49.732;20.078;2023-05-24T03:27:16;96522.01;;;16.29;82.13
24302;BME280;12421;49.732;20.078;2023-05-24T03:37:23;96521.89;;;16.37;82.69
24302;BME280;12421;49.732;20.078;2023-05-24T03:47:31;96528.68;;;16.44;82.48
24302;BME280;12421;49.732;20.078;2023-05-24T03:58:00;96534.69;;;16.45;82.70
24302;BME280;12421;49.732;20.078;2023-05-24T04:08:03;96545.50;;;16.54;82.66
24302;BME280;12421;49.732;20.078;2023-05-24T04:18:07;96553.17;;;16.62;82.42
24302;BME280;12421;49.732;20.078;2023-05-24T04:28:10;96561.85;;;16.52;82.72
24302;BME280;12421;49.732;20.078;2023-05-24T04:38:14;96572.56;;;16.46;83.06
24302;BME280;12421;49.732;20.078;2023-05-24T04:48:43;96583.40;;;16.40;83.70
24302;BME280;12421;49.732;20.078;2023-05-24T04:58:46;96592.22;;;16.46;84.24
24302;BME280;12421;49.732;20.078;2023-05-24T05:08:53;96596.23;;;16.48;83.87
24302;BME280;12421;49.732;20.078;2023-05-24T05:18:57;96602.73;;;16.49;83.53
24302;BME280;12421;49.732;20.078;2023-05-24T05:29:00;96619.31;;;16.56;83.42
24302;BME280;12421;49.732;20.078;2023-05-24T05:39:03;96625.71;;;16.74;83.33
24302;BME280;12421;49.732;20.078;2023-05-24T05:49:07;96638.11;;;16.79;83.31
24302;BME280;12421;49.732;20.078;2023-05-24T05:59:11;96648.27;;;16.81;83.10
24302;BME280;12421;49.732;20.078;2023-05-24T06:09:15;96658.12;;;16.79;82.94
24302;BME280;12421;49.732;20.078;2023-05-24T06:19:22;96674.84;;;16.95;83.11
24302;BME280;12421;49.732;20.078;2023-05-24T06:29:26;96689.60;;;17.03;82.56
24302;BME280;12421;49.732;20.078;2023-05-24T06:39:29;96698.03;;;16.96;82.30
24302;BME280;12421;49.732;20.078;2023-05-24T06:49:34;96710.05;;;16.84;82.20
24302;BME280;12421;49.732;20.078;2023-05-24T06:59:37;96725.76;;;16.81;82.36
24302;BME280;12421;49.732;20.078;2023-05-24T07:09:41;96734.79;;;16.77;82.25
24302;BME280;12421;49.732;20.078;2023-05-24T07:19:45;96746.06;;;16.79;82.13
24302;BME280;12421;49.732;20.078;2023-05-24T07:30:13;96756.27;;;16.67;81.93
24302;BME280;12421;49.732;20.078;2023-05-24T07:40:33;96770.23;;;16.73;83.00
24302;BME280;12421;49.732;20.078;2023-05-24T07:50:37;96775.00;;;16.78;83.10
24302;BME280;12421;49.732;20.078;2023-05-24T08:00:41;96784.07;;;16.82;83.27
24302;BME280;12421;49.732;20.078;2023-05-24T08:10:44;96793.20;;;16.98;82.82
24302;BME280;12421;49.732;20.078;2023-05-24T08:21:13;96790.70;;;17.04;82.18
24302;BME280;12421;49.732;20.078;2023-05-24T08:31:20;96797.86;;;16.92;81.30
24302;BME280;12421;49.732;20.078;2023-05-24T08:41:24;96810.07;;;16.88;82.34
24302;BME280;12421;49.732;20.078;2023-05-24T08:51:30;96828.44;;;16.71;81.28
24302;BME280;12421;49.732;20.078;2023-05-24T09:02:01;96841.29;;;16.33;80.49
24302;BME280;12421;49.732;20.078;2023-05-24T09:12:07;96855.18;;;16.00;80.98
24302;BME280;12421;49.732;20.078;2023-05-24T09:22:12;96870.08;;;15.84;81.05
24302;BME280;12421;49.732;20.078;2023-05-24T09:32:17;96887.03;;;15.57;80.38
24302;BME280;12421;49.732;20.078;2023-05-24T09:42:24;96902.54;;;15.42;81.00
24302;BME280;12421;49.732;20.078;2023-05-24T09:52:55;96915.22;;;15.25;80.64
24302;BME280;12421;49.732;20.078;2023-05-24T10:03:03;96926.36;;;15.01;80.97
24302;BME280;12421;49.732;20.078;2023-05-24T10:13:08;96935.23;;;15.00;81.06
24302;BME280;12421;49.732;20.078;2023-05-24T10:23:17;96946.27;;;14.91;80.65
24302;BME280;12421;49.732;20.078;2023-05-24T10:33:25;96954.29;;;14.70;81.09
24302;BME280;12421;49.732;20.078;2023-05-24T10:43:29;96965.64;;;14.68;80.95
24302;BME280;12421;49.732;20.078;2023-05-24T10:53:37;96973.77;;;14.55;80.58
24302;BME280;12421;49.732;20.078;2023-05-24T11:03:52;96975.65;;;14.57;82.07
24302;BME280;12421;49.732;20.078;2023-05-24T11:13:59;96985.11;;;14.73;81.36
24302;BME280;12421;49.732;20.078;2023-05-24T11:24:04;96991.36;;;14.71;80.71
24302;BME280;12421;49.732;20.078;2023-05-24T11:34:11;96987.25;;;14.72;80.43
24302;BME280;12421;49.732;20.078;2023-05-24T11:44:40;96992.41;;;14.78;80.32
24302;BME280;12421;49.732;20.078;2023-05-24T11:54:44;96991.30;;;14.80;79.94
24302;BME280;12421;49.732;20.078;2023-05-24T12:04:47;96998.17;;;14.74;79.94
24302;BME280;12421;49.732;20.078;2023-05-24T12:14:54;97004.41;;;14.85;80.72
24302;BME280;12421;49.732;20.078;2023-05-24T12:24:58;97006.13;;;15.07;80.71
24302;BME280;12421;49.732;20.078;2023-05-24T12:35:03;97008.19;;;15.15;80.29
24302;BME280;12421;49.732;20.078;2023-05-24T12:45:06;96996.32;;;15.29;79.89
24302;BME280;12421;49.732;20.078;2023-05-24T12:55:10;96988.27;;;15.52;79.16
24302;BME280;12421;49.732;20.078;2023-05-24T13:05:13;96992.27;;;15.71;78.27
24302;BME280;12421;49.732;20.078;2023-05-24T13:15:18;96987.21;;;15.91;77.84
24302;BME280;12421;49.732;20.078;2023-05-24T13:25:22;96997.38;;;16.28;76.84
24302;BME280;12421;49.732;20.078;2023-05-24T13:35:25;97004.59;;;16.46;75.89
24302;BME280;12421;49.732;20.078;2023-05-24T13:45:28;96999.61;;;16.30;75.38
24302;BME280;12421;49.732;20.078;2023-05-24T13:55:34;97005.70;;;16.17;74.72
24302;BME280;12421;49.732;20.078;2023-05-24T14:05:38;97010.64;;;16.06;75.10
24302;BME280;12421;49.732;20.078;2023-05-24T14:15:43;97008.90;;;16.11;74.97
24302;BME280;12421;49.732;20.078;2023-05-24T14:25:49;97002.95;;;16.03;74.26
24302;BME280;12421;49.732;20.078;2023-05-24T14:35:53;96994.83;;;16.03;75.09
24302;BME280;12421;49.732;20.078;2023-05-24T14:45:57;97004.48;;;16.11;75.42
24302;BME280;12421;49.732;20.078;2023-05-24T14:56:00;97019.67;;;16.34;74.34
24302;BME280;12421;49.732;20.078;2023-05-24T15:06:06;97019.20;;;16.27;73.82
24302;BME280;12421;49.732;20.078;2023-05-24T15:16:10;97023.91;;;16.07;74.09
24302;BME280;12421;49.732;20.078;2023-05-24T15:26:13;97028.13;;;15.73;74.55
24302;BME280;12421;49.732;20.078;2023-05-24T15:36:17;97028.66;;;15.55;75.08
24302;BME280;12421;49.732;20.078;2023-05-24T15:46:22;97026.43;;;15.53;75.51
24302;BME280;12421;49.732;20.078;2023-05-24T15:56:25;97035.66;;;15.52;75.73
24302;BME280;12421;49.732;20.078;2023-05-24T16:06:30;97048.50;;;15.41;75.77
24302;BME280;12421;49.732;20.078;2023-05-24T16:16:33;97057.92;;;15.41;76.60
24302;BME280;12421;49.732;20.078;2023-05-24T16:26:36;97069.00;;;15.29;76.40
24302;BME280;12421;49.732;20.078;2023-05-24T16:36:41;97071.97;;;14.98;76.68
24302;BME280;12421;49.732;20.078;2023-05-24T16:46:44;97077.84;;;14.76;77.67
24302;BME280;12421;49.732;20.078;2023-05-24T16:56:49;97083.39;;;14.66;78.42
24302;BME280;12421;49.732;20.078;2023-05-24T17:06:55;97089.38;;;14.66;79.10
24302;BME280;12421;49.732;20.078;2023-05-24T17:16:58;97098.58;;;14.59;79.54
24302;BME280;12421;49.732;20.078;2023-05-24T17:27:02;97104.03;;;14.60;79.76
24302;BME280;12421;49.732;20.078;2023-05-24T17:37:06;97112.21;;;14.57;79.45
24302;BME280;12421;49.732;20.078;2023-05-24T17:47:11;97116.37;;;14.46;79.54
24302;BME280;12421;49.732;20.078;2023-05-24T17:57:14;97135.56;;;14.49;80.01
24302;BME280;12421;49.732;20.078;2023-05-24T18:07:17;97139.02;;;14.45;79.73
24302;BME280;12421;49.732;20.078;2023-05-24T18:17:21;97133.08;;;14.25;80.49
24302;BME280;12421;49.732;20.078;2023-05-24T18:27:25;97136.20;;;14.11;80.71
24302;BME280;12421;49.732;20.078;2023-05-24T18:37:32;97155.07;;;14.04;81.28
24302;BME280;12421;49.732;20.078;2023-05-24T18:47:38;97171.17;;;14.03;81.31
24302;BME280;12421;49.732;20.078;2023-05-24T18:57:42;97180.89;;;14.10;81.77
24302;BME280;12421;49.732;20.078;2023-05-24T19:07:46;97190.81;;;14.09;81.84
24302;BME280;12421;49.732;20.078;2023-05-24T19:17:53;97199.73;;;14.04;82.32
24302;BME280;12421;49.732;20.078;2023-05-24T19:27:57;97207.25;;;14.08;82.32
24302;BME280;12421;49.732;20.078;2023-05-24T19:38:03;97206.73;;;14.07;82.54
24302;BME280;12421;49.732;20.078;2023-05-24T19:48:06;97206.84;;;14.02;82.70
24302;BME280;12421;49.732;20.078;2023-05-24T19:58:12;97216.70;;;14.03;82.70
24302;BME280;12421;49.732;20.078;2023-05-24T20:08:17;97199.80;;;14.09;82.74
24302;BME280;12421;49.732;20.078;2023-05-24T20:18:23;97194.83;;;14.02;82.22
24302;BME280;12421;49.732;20.078;2023-05-24T20:28:27;97196.42;;;14.02;82.42
24302;BME280;12421;49.732;20.078;2023-05-24T20:38:33;97198.42;;;13.98;82.29
24302;BME280;12421;49.732;20.078;2023-05-24T20:48:37;97195.58;;;13.91;82.67
24302;BME280;12421;49.732;20.078;2023-05-24T20:58:41;97197.70;;;13.81;82.94
24302;BME280;12421;49.732;20.078;2023-05-24T21:08:49;97206.95;;;13.78;82.63
24302;BME280;12421;49.732;20.078;2023-05-24T21:18:53;97203.07;;;13.87;82.98
24302;BME280;12421;49.732;20.078;2023-05-24T21:28:56;97207.50;;;13.95;82.56
24302;BME280;12421;49.732;20.078;2023-05-24T21:39:00;97210.71;;;13.93;81.96
24302;BME280;12421;49.732;20.078;2023-05-24T21:49:05;97210.04;;;13.92;81.90
24302;BME280;12421;49.732;20.078;2023-05-24T21:59:09;97215.10;;;13.85;82.16
24302;BME280;12421;49.732;20.078;2023-05-24T22:09:13;97227.25;;;13.87;82.28
24302;BME280;12421;49.732;20.078;2023-05-24T22:19:17;97239.41;;;13.88;82.26
24302;BME280;12421;49.732;20.078;2023-05-24T22:29:40;97247.52;;;13.97;82.32
24302;BME280;12421;49.732;20.078;2023-05-24T22:39:43;97251.90;;;14.00;82.08
24302;BME280;12421;49.732;20.078;2023-05-24T22:50:12;97258.21;;;13.92;82.53
24302;BME280;12421;49.732;20.078;2023-05-24T23:00:40;97256.87;;;13.88;82.70
24302;BME280;12421;49.732;20.078;2023-05-24T23:10:44;97254.11;;;13.95;82.69
24302;BME280;12421;49.732;20.078;2023-05-24T23:20:49;97261.77;;;13.91;82.61
24302;BME280;12421;49.732;20.078;2023-05-24T23:30:56;97267.56;;;13.92;82.79
24302;BME280;12421;49.732;20.078;2023-05-24T23:41:01;97276.02;;;13.94;82.64
24302;BME280;12421;49.732;20.078;2023-05-24T23:51:05;97277.80;;;13.93;82.36
